createdAt,value
2023-06-17T00:00:34.095Z,15.39
2023-06-17T00:03:01.120Z,15.28
2023-06-17T00:05:27.934Z,15.17
2023-06-17T00:07:54.546Z,15.24
2023-06-17T00:10:21.495Z,15.24
2023-06-17T00:12:49.501Z,15.21
2023-06-17T00:15:18.608Z,15.13
2023-06-17T00:17:46.286Z,15.01
2023-06-17T00:20:14.495Z,15.05
2023-06-17T00:22:41.905Z,15.00
2023-06-17T00:25:09.027Z,14.86
2023-06-17T00:27:35.764Z,14.97
2023-06-17T00:30:02.501Z,14.83
2023-06-17T00:32:29.357Z,14.74
2023-06-17T00:34:56.195Z,14.87
2023-06-17T00:37:23.094Z,14.86
2023-06-17T00:39:49.716Z,14.69
2023-06-17T00:42:17.515Z,14.63
2023-06-17T00:44:44.293Z,14.51
2023-06-17T00:47:12.693Z,14.55
2023-06-17T00:49:41.874Z,14.53
2023-06-17T00:52:31.048Z,14.56
2023-06-17T00:54:58.281Z,14.55
2023-06-17T00:57:25.320Z,14.52
2023-06-17T00:59:52.608Z,14.38
2023-06-17T01:02:19.222Z,14.25
2023-06-17T01:04:47.845Z,14.27
2023-06-17T01:07:25.195Z,14.27
2023-06-17T01:09:58.164Z,14.20
2023-06-17T01:12:29.310Z,14.25
2023-06-17T01:14:58.614Z,14.21
2023-06-17T01:17:27.279Z,14.22
2023-06-17T01:19:56.129Z,14.21
2023-06-17T01:22:24.326Z,14.17
2023-06-17T01:24:51.433Z,14.11
2023-06-17T01:27:21.232Z,14.09
2023-06-17T01:29:50.481Z,14.01
2023-06-17T01:32:17.924Z,14.09
2023-06-17T01:35:15.940Z,13.92
2023-06-17T01:37:49.398Z,13.86
2023-06-17T01:40:21.630Z,13.86
2023-06-17T01:42:52.033Z,13.97
2023-06-17T01:45:19.524Z,13.91
2023-06-17T01:47:47.167Z,13.82
2023-06-17T01:50:20.160Z,13.72
2023-06-17T01:52:47.826Z,13.76
2023-06-17T01:55:15.491Z,13.80
2023-06-17T01:57:42.136Z,13.66
2023-06-17T02:00:10.260Z,13.72
2023-06-17T02:02:37.210Z,13.56
2023-06-17T02:05:03.978Z,13.58
2023-06-17T02:07:31.721Z,13.54
2023-06-17T02:09:58.709Z,13.45
2023-06-17T02:12:26.268Z,13.49
2023-06-17T02:14:52.974Z,13.20
2023-06-17T02:17:19.760Z,13.09
2023-06-17T02:19:46.342Z,13.13
2023-06-17T02:22:13.120Z,13.26
2023-06-17T02:24:39.767Z,13.16
2023-06-17T02:27:06.755Z,13.10
2023-06-17T02:29:33.375Z,13.03
2023-06-17T02:31:59.995Z,13.08
2023-06-17T02:34:26.605Z,13.11
2023-06-17T02:36:53.219Z,13.10
2023-06-17T02:39:19.866Z,13.10
2023-06-17T02:41:46.494Z,13.03
2023-06-17T02:44:13.048Z,12.87
2023-06-17T02:46:39.679Z,12.85
2023-06-17T02:49:06.940Z,12.81
2023-06-17T02:51:33.572Z,12.90
2023-06-17T02:54:00.128Z,12.86
2023-06-17T02:56:27.785Z,12.88
2023-06-17T02:58:54.470Z,12.92
2023-06-17T03:01:22.443Z,12.92
2023-06-17T03:03:49.414Z,12.78
2023-06-17T03:06:16.964Z,12.85
2023-06-17T03:08:43.563Z,12.77
2023-06-17T03:11:10.439Z,12.71
2023-06-17T03:13:37.124Z,12.77
2023-06-17T03:16:04.083Z,12.67
2023-06-17T03:18:31.164Z,12.56
2023-06-17T03:20:58.079Z,12.45
2023-06-17T03:23:25.741Z,12.56
2023-06-17T03:25:53.228Z,12.42
2023-06-17T03:28:20.255Z,12.46
2023-06-17T03:30:46.945Z,12.35
2023-06-17T03:33:14.657Z,12.45
2023-06-17T03:35:41.530Z,12.46
2023-06-17T03:38:09.215Z,12.47
2023-06-17T03:40:35.856Z,12.57
2023-06-17T03:43:02.508Z,12.45
2023-06-17T03:45:29.478Z,12.48
2023-06-17T03:47:56.404Z,12.51
2023-06-17T03:50:23.254Z,12.44
2023-06-17T03:52:50.025Z,12.52
2023-06-17T03:55:17.646Z,12.59
2023-06-17T03:57:44.680Z,12.67
2023-06-17T04:00:12.569Z,12.59
2023-06-17T04:02:39.416Z,12.66
2023-06-17T04:05:06.330Z,12.72
2023-06-17T04:07:34.393Z,12.88
2023-06-17T04:10:06.308Z,13.10
2023-06-17T04:12:34.450Z,13.41
2023-06-17T04:15:01.028Z,13.75
2023-06-17T04:17:27.942Z,13.89
2023-06-17T04:19:57.609Z,14.33
2023-06-17T04:22:24.207Z,14.71
2023-06-17T04:24:57.368Z,15.01
2023-06-17T04:27:24.038Z,15.06
2023-06-17T04:29:50.633Z,15.66
2023-06-17T04:32:17.319Z,15.77
2023-06-17T04:34:48.904Z,15.76
2023-06-17T04:37:16.011Z,16.23
2023-06-17T04:39:43.372Z,16.25
2023-06-17T04:42:11.145Z,15.96
2023-06-17T04:44:41.733Z,16.09
2023-06-17T04:47:10.962Z,15.86
2023-06-17T04:49:42.809Z,16.01
2023-06-17T04:52:10.033Z,16.31
2023-06-17T04:54:36.908Z,16.96
2023-06-17T04:57:03.948Z,16.99
2023-06-17T04:59:30.730Z,16.94
2023-06-17T05:01:57.444Z,17.34
2023-06-17T05:04:24.060Z,17.48
2023-06-17T05:06:51.032Z,17.56
2023-06-17T05:09:17.654Z,17.40
2023-06-17T05:11:44.263Z,17.60
2023-06-17T05:14:11.079Z,17.69
2023-06-17T05:16:37.969Z,17.44
2023-06-17T05:19:04.544Z,17.56
2023-06-17T05:21:31.202Z,17.65
2023-06-17T05:23:57.812Z,17.25
2023-06-17T05:26:24.516Z,17.48
2023-06-17T05:28:51.129Z,17.58
2023-06-17T05:31:19.916Z,17.62
2023-06-17T05:33:46.645Z,17.47
2023-06-17T05:36:13.559Z,17.89
2023-06-17T05:38:40.178Z,18.39
2023-06-17T05:41:06.989Z,18.39
2023-06-17T05:43:33.644Z,18.22
2023-06-17T05:46:00.273Z,18.64
2023-06-17T05:48:26.961Z,19.04
2023-06-17T05:50:53.534Z,18.61
2023-06-17T05:53:20.210Z,18.81
2023-06-17T05:55:46.751Z,18.71
2023-06-17T05:58:13.450Z,19.20
2023-06-17T06:00:40.084Z,18.97
2023-06-17T06:03:06.705Z,19.47
2023-06-17T06:05:33.374Z,19.01
2023-06-17T06:07:59.946Z,19.34
2023-06-17T06:10:29.638Z,19.65
2023-06-17T06:12:56.722Z,20.49
2023-06-17T06:15:24.587Z,20.32
2023-06-17T06:17:51.265Z,19.78
2023-06-17T06:20:17.911Z,19.78
2023-06-17T06:22:44.849Z,20.47
2023-06-17T06:25:11.503Z,20.24
2023-06-17T06:27:38.075Z,20.87
2023-06-17T06:30:05.171Z,20.38
2023-06-17T06:32:31.772Z,20.63
2023-06-17T06:34:58.373Z,20.85
2023-06-17T06:37:24.991Z,20.80
2023-06-17T06:39:51.571Z,20.94
2023-06-17T06:42:18.182Z,21.25
2023-06-17T06:44:44.812Z,21.22
2023-06-17T06:47:11.456Z,21.19
2023-06-17T06:49:38.140Z,20.91
2023-06-17T06:52:05.145Z,21.17
2023-06-17T06:54:31.683Z,21.60
2023-06-17T06:56:58.410Z,21.69
2023-06-17T06:59:25.012Z,21.50
2023-06-17T07:01:51.623Z,21.64
2023-06-17T07:04:20.730Z,21.66
2023-06-17T07:06:47.691Z,20.95
2023-06-17T07:09:14.324Z,21.26
2023-06-17T07:11:40.906Z,21.44
2023-06-17T07:14:07.857Z,21.44
2023-06-17T07:16:34.461Z,22.05
2023-06-17T07:19:01.622Z,21.82
2023-06-17T07:23:54.927Z,21.69
2023-06-17T07:26:21.598Z,21.95
2023-06-17T07:28:48.211Z,22.30
2023-06-17T07:31:14.807Z,22.21
2023-06-17T07:33:41.767Z,22.51
2023-06-17T07:36:08.332Z,22.80
2023-06-17T07:38:34.988Z,22.41
2023-06-17T07:41:01.924Z,22.40
2023-06-17T07:43:28.950Z,22.90
2023-06-17T07:45:56.681Z,23.47
2023-06-17T07:48:24.327Z,23.36
2023-06-17T07:50:51.167Z,23.91
2023-06-17T07:53:17.702Z,23.72
2023-06-17T07:55:44.328Z,24.14
2023-06-17T07:58:10.918Z,24.20
2023-06-17T08:00:37.457Z,24.23
2023-06-17T08:03:04.292Z,24.94
2023-06-17T08:05:31.145Z,24.50
2023-06-17T08:07:57.764Z,25.17
2023-06-17T08:10:24.321Z,25.97
2023-06-17T08:12:51.641Z,24.68
2023-06-17T08:15:18.249Z,24.30
2023-06-17T08:17:45.024Z,24.74
2023-06-17T08:20:12.087Z,24.24
2023-06-17T08:22:38.858Z,24.66
2023-06-17T08:25:06.047Z,24.62
2023-06-17T08:27:33.601Z,25.01
2023-06-17T08:30:01.013Z,24.91
2023-06-17T08:32:27.656Z,24.47
2023-06-17T08:34:54.634Z,25.01
2023-06-17T08:37:21.316Z,24.85
2023-06-17T08:39:47.869Z,25.24
2023-06-17T08:42:14.461Z,24.87
2023-06-17T08:44:44.090Z,24.92
2023-06-17T08:47:16.589Z,24.99
2023-06-17T08:49:45.114Z,24.73
2023-06-17T08:52:12.687Z,25.13
2023-06-17T08:54:41.737Z,24.97
2023-06-17T08:57:15.071Z,25.50
2023-06-17T08:59:42.312Z,24.76
2023-06-17T09:02:09.109Z,24.53
2023-06-17T09:04:36.583Z,23.73
2023-06-17T09:07:03.855Z,23.22
2023-06-17T09:09:30.484Z,23.89
2023-06-17T09:11:57.053Z,23.47
2023-06-17T09:14:23.861Z,23.33
2023-06-17T09:16:50.896Z,23.34
2023-06-17T09:19:17.668Z,23.63
2023-06-17T09:21:47.416Z,23.61
2023-06-17T09:24:14.318Z,24.23
2023-06-17T09:26:43.248Z,25.06
2023-06-17T09:29:11.820Z,25.14
2023-06-17T09:31:52.388Z,25.41
2023-06-17T09:34:19.954Z,25.64
2023-06-17T09:37:01.693Z,25.10
2023-06-17T09:39:33.049Z,24.68
2023-06-17T09:42:10.398Z,24.58
2023-06-17T09:44:40.877Z,24.67
2023-06-17T09:47:09.206Z,23.90
2023-06-17T09:49:37.236Z,23.97
2023-06-17T09:52:06.741Z,23.60
2023-06-17T09:54:34.713Z,24.11
2023-06-17T09:57:02.512Z,24.88
2023-06-17T09:59:30.307Z,25.64
2023-06-17T10:01:58.014Z,25.59
2023-06-17T10:04:24.734Z,26.62
2023-06-17T10:06:54.256Z,26.78
2023-06-17T10:09:21.519Z,27.49
2023-06-17T10:11:52.679Z,26.95
2023-06-17T10:14:25.103Z,27.31
2023-06-17T10:16:52.279Z,28.47
2023-06-17T10:19:23.715Z,28.10
2023-06-17T10:21:54.135Z,27.15
2023-06-17T10:24:21.740Z,28.03
2023-06-17T10:26:52.531Z,28.30
2023-06-17T10:29:19.232Z,28.13
2023-06-17T10:31:45.797Z,28.88
2023-06-17T10:34:22.856Z,28.23
2023-06-17T10:36:59.719Z,28.03
2023-06-17T10:39:26.323Z,27.77
2023-06-17T10:41:57.052Z,28.21
2023-06-17T10:44:36.449Z,27.72
2023-06-17T10:47:15.626Z,27.13
2023-06-17T10:49:43.295Z,28.50
2023-06-17T10:52:14.485Z,26.67
2023-06-17T10:54:55.378Z,26.70
2023-06-17T10:57:32.011Z,25.97
2023-06-17T11:00:07.678Z,26.21
2023-06-17T11:02:34.497Z,26.55
2023-06-17T11:05:02.835Z,26.20
2023-06-17T11:07:30.172Z,27.01
2023-06-17T11:09:57.499Z,28.48
2023-06-17T11:12:24.169Z,26.95
2023-06-17T11:14:52.580Z,27.04
2023-06-17T11:17:19.239Z,28.30
2023-06-17T11:19:47.504Z,29.12
2023-06-17T11:22:14.166Z,28.73
2023-06-17T11:24:40.865Z,28.04
2023-06-17T11:27:07.975Z,29.37
2023-06-17T11:29:34.673Z,28.09
2023-06-17T11:32:02.345Z,27.06
2023-06-17T11:34:35.431Z,26.90
2023-06-17T11:37:03.320Z,26.71
2023-06-17T11:39:32.067Z,26.71
2023-06-17T11:42:02.944Z,26.41
2023-06-17T11:44:34.172Z,26.12
2023-06-17T11:47:08.613Z,25.93
2023-06-17T11:49:35.888Z,25.92
2023-06-17T11:52:11.028Z,25.88
2023-06-17T11:54:50.178Z,26.08
2023-06-17T11:57:25.682Z,27.40
2023-06-17T11:59:53.611Z,26.76
2023-06-17T12:02:20.794Z,27.07
2023-06-17T12:04:48.130Z,27.91
2023-06-17T12:07:15.331Z,28.43
2023-06-17T12:09:53.312Z,29.12
2023-06-17T12:12:28.439Z,28.05
2023-06-17T12:15:21.109Z,28.89
2023-06-17T12:17:51.983Z,27.52
2023-06-17T12:20:20.902Z,28.35
2023-06-17T12:22:50.807Z,28.47
2023-06-17T12:25:17.642Z,28.52
2023-06-17T12:27:44.901Z,28.03
2023-06-17T12:30:12.539Z,28.21
2023-06-17T12:32:41.321Z,26.60
2023-06-17T12:35:09.383Z,26.72
2023-06-17T12:37:38.513Z,27.53
2023-06-17T12:40:05.737Z,27.60
2023-06-17T12:42:32.525Z,28.19
2023-06-17T12:44:59.155Z,27.94
2023-06-17T12:47:26.676Z,27.54
2023-06-17T12:49:53.488Z,27.98
2023-06-17T12:52:20.182Z,27.62
2023-06-17T12:54:47.316Z,28.08
2023-06-17T12:57:16.032Z,27.38
2023-06-17T12:59:42.810Z,27.18
2023-06-17T13:02:09.429Z,27.44
2023-06-17T13:04:36.034Z,27.16
2023-06-17T13:07:02.715Z,26.34
2023-06-17T13:09:29.393Z,26.12
2023-06-17T13:11:56.203Z,26.38
2023-06-17T13:14:23.959Z,26.68
2023-06-17T13:16:50.965Z,26.78
2023-06-17T13:19:18.504Z,26.86
2023-06-17T13:21:45.193Z,26.74
2023-06-17T13:24:11.859Z,26.75
2023-06-17T13:26:38.998Z,26.95
2023-06-17T13:29:06.470Z,26.29
2023-06-17T13:31:33.854Z,26.64
2023-06-17T13:34:00.902Z,26.75
2023-06-17T13:36:27.717Z,27.06
2023-06-17T13:38:54.427Z,26.59
2023-06-17T13:41:21.780Z,26.89
2023-06-17T13:43:48.582Z,27.22
2023-06-17T13:46:15.314Z,27.41
2023-06-17T13:48:44.370Z,27.98
2023-06-17T13:51:11.139Z,28.07
2023-06-17T13:53:38.225Z,27.96
2023-06-17T13:56:05.762Z,27.76
2023-06-17T13:58:32.374Z,27.50
2023-06-17T14:00:59.136Z,27.31
2023-06-17T14:03:25.915Z,27.56
2023-06-17T14:05:52.827Z,27.78
2023-06-17T14:08:20.810Z,27.93
2023-06-17T14:10:48.800Z,26.85
2023-06-17T14:13:15.429Z,27.75
2023-06-17T14:15:41.979Z,27.94
2023-06-17T14:18:08.704Z,27.61
2023-06-17T14:20:35.328Z,27.50
2023-06-17T14:23:04.068Z,27.54
2023-06-17T14:25:31.131Z,27.28
2023-06-17T14:27:57.934Z,27.13
2023-06-17T14:30:24.788Z,26.89
2023-06-17T14:32:51.687Z,26.97
2023-06-17T14:35:20.353Z,27.09
2023-06-17T14:37:49.027Z,27.09
2023-06-17T14:40:16.767Z,27.53
2023-06-17T14:42:43.643Z,27.26
2023-06-17T14:45:12.837Z,27.29
2023-06-17T14:47:41.139Z,27.09
2023-06-17T14:50:09.794Z,27.47
2023-06-17T14:52:36.412Z,28.01
2023-06-17T14:55:04.387Z,28.09
2023-06-17T14:57:33.378Z,27.19
2023-06-17T15:00:00.715Z,27.21
2023-06-17T15:02:38.077Z,27.50
2023-06-17T15:05:05.038Z,27.53
2023-06-17T15:07:31.621Z,27.26
2023-06-17T15:09:58.176Z,26.79
2023-06-17T15:12:24.727Z,26.37
2023-06-17T15:14:52.433Z,26.69
2023-06-17T15:17:19.061Z,26.90
2023-06-17T15:19:45.931Z,27.30
2023-06-17T15:22:12.640Z,27.55
2023-06-17T15:24:39.461Z,27.69
2023-06-17T15:27:07.471Z,27.72
2023-06-17T15:29:34.175Z,27.92
2023-06-17T15:32:01.249Z,28.05
2023-06-17T15:34:27.868Z,28.16
2023-06-17T15:36:54.478Z,28.04
2023-06-17T15:39:24.299Z,28.22
2023-06-17T15:41:53.085Z,28.24
2023-06-17T15:44:21.014Z,28.55
2023-06-17T15:46:48.148Z,28.65
2023-06-17T15:49:14.833Z,28.80
2023-06-17T15:51:41.603Z,28.54
2023-06-17T15:54:08.797Z,28.38
2023-06-17T15:56:37.976Z,28.15
2023-06-17T15:59:05.608Z,28.07
2023-06-17T16:01:32.914Z,28.12
2023-06-17T16:04:00.006Z,27.94
2023-06-17T16:06:26.840Z,27.69
2023-06-17T16:08:54.569Z,27.47
2023-06-17T16:11:21.402Z,27.13
2023-06-17T16:13:49.162Z,27.23
2023-06-17T16:16:16.045Z,27.48
2023-06-17T16:18:42.710Z,27.43
2023-06-17T16:21:09.340Z,27.54
2023-06-17T16:23:36.870Z,27.75
2023-06-17T16:26:04.014Z,27.56
2023-06-17T16:28:30.682Z,27.54
2023-06-17T16:30:57.235Z,27.70
2023-06-17T16:33:24.121Z,27.51
2023-06-17T16:35:50.780Z,27.64
2023-06-17T16:38:17.391Z,27.47
2023-06-17T16:40:44.068Z,27.56
2023-06-17T16:43:10.675Z,27.41
2023-06-17T16:45:37.341Z,27.51
2023-06-17T16:48:04.256Z,27.54
2023-06-17T16:50:31.052Z,27.31
2023-06-17T16:52:57.593Z,27.17
2023-06-17T16:55:24.255Z,27.10
2023-06-17T16:57:50.990Z,26.95
2023-06-17T17:00:18.150Z,26.62
2023-06-17T17:02:45.024Z,26.64
2023-06-17T17:05:11.777Z,26.65
2023-06-17T17:07:38.494Z,26.63
2023-06-17T17:10:06.742Z,26.78
2023-06-17T17:12:33.375Z,26.63
2023-06-17T17:14:59.973Z,26.83
2023-06-17T17:17:27.115Z,26.65
2023-06-17T17:19:54.687Z,26.65
2023-06-17T17:22:21.314Z,26.61
2023-06-17T17:24:48.005Z,26.61
2023-06-17T17:27:14.716Z,26.52
2023-06-17T17:29:41.600Z,26.52
2023-06-17T17:32:08.575Z,26.48
2023-06-17T17:34:35.204Z,26.46
2023-06-17T17:37:01.840Z,26.39
2023-06-17T17:39:28.450Z,26.30
2023-06-17T17:41:55.020Z,26.19
2023-06-17T17:44:21.699Z,26.08
2023-06-17T17:46:48.326Z,26.04
2023-06-17T17:49:14.904Z,25.95
2023-06-17T17:51:41.525Z,25.87
2023-06-17T17:54:08.150Z,25.63
2023-06-17T17:56:35.603Z,25.54
2023-06-17T17:59:02.472Z,25.51
2023-06-17T18:01:29.029Z,25.35
2023-06-17T18:03:55.597Z,25.35
2023-06-17T18:06:22.304Z,25.17
2023-06-17T18:08:48.842Z,25.06
2023-06-17T18:11:15.590Z,24.99
2023-06-17T18:13:42.167Z,24.85
2023-06-17T18:16:08.932Z,24.72
2023-06-17T18:18:35.568Z,24.65
2023-06-17T18:21:02.166Z,24.52
2023-06-17T18:23:28.732Z,24.33
2023-06-17T18:25:57.124Z,24.24
2023-06-17T18:28:23.809Z,24.17
2023-06-17T18:30:50.336Z,24.07
2023-06-17T18:33:17.006Z,24.03
2023-06-17T18:35:43.559Z,23.92
2023-06-17T18:38:10.269Z,23.79
2023-06-17T18:40:39.780Z,23.65
2023-06-17T18:43:08.501Z,23.64
2023-06-17T18:45:35.394Z,23.52
2023-06-17T18:48:03.952Z,23.46
2023-06-17T18:50:30.815Z,23.33
2023-06-17T18:52:57.555Z,23.28
2023-06-17T18:55:24.189Z,23.15
2023-06-17T18:57:50.831Z,23.04
2023-06-17T19:00:19.033Z,22.97
2023-06-17T19:02:45.923Z,22.84
2023-06-17T19:05:12.600Z,22.71
2023-06-17T19:07:43.689Z,22.67
2023-06-17T19:10:12.215Z,22.53
2023-06-17T19:12:39.199Z,22.37
2023-06-17T19:15:08.578Z,22.33
2023-06-17T19:17:38.715Z,22.24
2023-06-17T19:20:09.759Z,22.09
2023-06-17T19:22:38.447Z,22.01
2023-06-17T19:25:08.524Z,21.93
2023-06-17T19:27:35.092Z,21.80
2023-06-17T19:30:05.479Z,21.64
2023-06-17T19:32:33.223Z,21.47
2023-06-17T19:35:01.082Z,21.31
2023-06-17T19:37:28.653Z,21.28
2023-06-17T19:39:55.724Z,21.24
2023-06-17T19:42:22.520Z,21.14
2023-06-17T19:44:57.035Z,20.94
2023-06-17T19:47:25.962Z,20.79
2023-06-17T19:50:00.506Z,20.61
2023-06-17T19:52:27.212Z,20.65
2023-06-17T19:54:54.394Z,20.47
2023-06-17T19:57:21.021Z,20.37
2023-06-17T19:59:48.816Z,20.26
2023-06-17T20:02:15.479Z,20.02
2023-06-17T20:04:42.167Z,19.97
2023-06-17T20:07:08.800Z,19.83
2023-06-17T20:09:35.866Z,19.64
2023-06-17T20:12:02.404Z,19.63
2023-06-17T20:14:28.957Z,19.44
2023-06-17T20:16:55.782Z,19.26
2023-06-17T20:19:22.330Z,18.86
2023-06-17T20:21:48.996Z,18.64
2023-06-17T20:24:15.686Z,18.68
2023-06-17T20:26:42.375Z,18.31
2023-06-17T20:29:08.930Z,18.21
2023-06-17T20:31:35.493Z,18.10
2023-06-17T20:34:02.465Z,18.16
2023-06-17T20:36:29.537Z,18.28
2023-06-17T20:38:56.213Z,18.27
2023-06-17T20:41:22.917Z,18.38
2023-06-17T20:43:49.571Z,18.27
2023-06-17T20:46:16.172Z,18.23
2023-06-17T20:48:42.762Z,18.24
2023-06-17T20:51:11.318Z,18.25
2023-06-17T20:53:38.094Z,18.23
2023-06-17T20:56:04.784Z,18.10
2023-06-17T20:58:31.364Z,17.99
2023-06-17T21:00:57.997Z,18.01
2023-06-17T21:03:24.641Z,18.01
2023-06-17T21:05:51.344Z,18.05
2023-06-17T21:08:18.995Z,18.00
2023-06-17T21:10:45.617Z,17.99
2023-06-17T21:13:12.916Z,17.77
2023-06-17T21:15:39.595Z,17.82
2023-06-17T21:18:06.393Z,17.83
2023-06-17T21:20:33.190Z,17.81
2023-06-17T21:23:00.892Z,17.69
2023-06-17T21:25:27.483Z,17.71
2023-06-17T21:27:54.044Z,17.62
2023-06-17T21:30:20.953Z,17.57
2023-06-17T21:32:47.749Z,17.42
2023-06-17T21:35:14.564Z,17.34
2023-06-17T21:37:41.125Z,17.21
2023-06-17T21:40:11.048Z,17.20
2023-06-17T21:42:37.738Z,17.15
2023-06-17T21:45:04.600Z,17.07
2023-06-17T21:47:31.196Z,17.01
2023-06-17T21:49:59.496Z,17.00
2023-06-17T21:52:26.205Z,16.92
2023-06-17T21:54:52.744Z,16.88
2023-06-17T21:57:20.903Z,16.88
2023-06-17T21:59:47.454Z,16.77
2023-06-17T22:02:14.003Z,16.78
2023-06-17T22:04:40.801Z,16.60
2023-06-17T22:07:07.328Z,16.54
2023-06-17T22:09:33.891Z,16.55
2023-06-17T22:12:00.716Z,16.56
2023-06-17T22:14:27.331Z,16.57
2023-06-17T22:16:53.948Z,16.57
2023-06-17T22:19:21.073Z,16.50
2023-06-17T22:21:47.619Z,16.33
2023-06-17T22:24:14.731Z,16.25
2023-06-17T22:26:41.429Z,16.29
2023-06-17T22:29:08.658Z,16.32
2023-06-17T22:31:35.276Z,16.19
2023-06-17T22:34:01.820Z,16.21
2023-06-17T22:36:28.390Z,16.06
2023-06-17T22:38:54.950Z,15.97
2023-06-17T22:41:21.529Z,16.08
2023-06-17T22:43:48.106Z,16.06
2023-06-17T22:46:14.744Z,16.00
2023-06-17T22:48:41.311Z,16.01
2023-06-17T22:51:08.017Z,15.88
2023-06-17T22:53:35.457Z,15.87
2023-06-17T22:56:02.320Z,15.91
2023-06-17T22:58:28.921Z,15.82
2023-06-17T23:00:56.427Z,15.69
2023-06-17T23:03:23.087Z,15.62
2023-06-17T23:05:49.681Z,15.55
2023-06-17T23:08:16.318Z,15.53
2023-06-17T23:10:42.961Z,15.58
2023-06-17T23:13:09.518Z,15.45
2023-06-17T23:15:39.754Z,15.53
2023-06-17T23:18:06.670Z,15.41
2023-06-17T23:20:33.413Z,15.44
2023-06-17T23:23:00.016Z,15.41
2023-06-17T23:25:27.650Z,15.41
2023-06-17T23:27:54.713Z,15.18
2023-06-17T23:30:22.541Z,15.23
2023-06-17T23:32:51.005Z,15.14
2023-06-17T23:35:18.417Z,14.98
2023-06-17T23:37:44.990Z,14.94
2023-06-17T23:40:11.767Z,15.05
2023-06-17T23:42:38.386Z,15.07
2023-06-17T23:45:05.458Z,14.87
2023-06-17T23:47:32.245Z,14.91
2023-06-17T23:49:59.020Z,14.91
2023-06-17T23:52:25.702Z,14.64
2023-06-17T23:54:52.264Z,14.29
2023-06-17T23:57:18.958Z,14.53
2023-06-17T23:59:45.495Z,14.61
